Time;durP1;ratioP1;P1;durP2;ratioP2;P2;SDS_P1;SDS_P2;PMS_P1;PMS_P2;Temp;Humidity;BMP_temperature;BMP_pressure;BME280_temperature;BME280_humidity;BME280_pressure;Samples;Min_cycle;Max_cycle;Signal;HPM_P1;HPM_P2
2022/07/19 00:00:01;;;;;;;5.85;3.20;;;;;;;18.40;83.21;101103.22;685520;28;4397;-79
2022/07/19 00:00:24;;;;;;;5.07;3.08;;;;;;;18.43;83.51;101093.44;691524;28;1388;-79
2022/07/19 00:00:48;;;;;;;5.47;3.20;;;;;;;18.46;83.10;101089.81;688163;28;1495;-79
2022/07/19 00:01:08;;;;;;;5.07;3.00;;;;;;;18.46;82.29;101095.13;680557;28;1211;-79
2022/07/19 00:01:28;;;;;;;5.60;3.10;;;;;;;18.55;81.59;101094.81;682860;28;1609;-79
2022/07/19 00:01:49;;;;;;;5.67;3.07;;;;;;;18.55;82.91;101102.75;681410;28;1433;-79
2022/07/19 00:02:10;;;;;;;5.47;3.13;;;;;;;18.54;83.30;101095.75;682913;28;1494;-79
2022/07/19 00:02:30;;;;;;;5.53;3.10;;;;;;;18.59;82.79;101095.59;683144;28;1451;-79
2022/07/19 00:02:51;;;;;;;5.45;3.17;;;;;;;18.57;83.97;101095.66;681211;28;1724;-79
2022/07/19 00:03:16;;;;;;;5.90;3.30;;;;;;;18.53;83.96;101092.22;682442;28;4325;-79
2022/07/19 00:03:37;;;;;;;5.25;3.33;;;;;;;18.54;83.10;101086.00;687524;28;1902;-79
2022/07/19 00:03:57;;;;;;;5.87;3.50;;;;;;;18.62;81.98;101091.09;689547;28;1539;-79
2022/07/19 00:04:18;;;;;;;5.00;3.20;;;;;;;18.65;82.03;101083.03;688784;28;1834;-79
2022/07/19 00:04:38;;;;;;;5.30;3.20;;;;;;;18.70;80.77;101099.63;685790;28;1396;-79
2022/07/19 00:04:58;;;;;;;6.38;3.20;;;;;;;18.74;82.10;101081.88;687775;28;1716;-79
2022/07/19 00:05:20;;;;;;;5.50;3.20;;;;;;;18.66;81.93;101087.44;685929;28;1646;-79
2022/07/19 00:05:40;;;;;;;5.40;3.10;;;;;;;18.69;82.12;101083.78;685670;28;1367;-79
2022/07/19 00:06:01;;;;;;;4.83;3.03;;;;;;;18.71;81.07;101081.97;688212;28;4302;-79
2022/07/19 00:06:21;;;;;;;5.40;3.10;;;;;;;18.72;81.37;101083.72;688223;28;1523;-79
2022/07/19 00:06:41;;;;;;;5.67;3.13;;;;;;;18.73;81.94;101088.06;686238;28;1753;-79
2022/07/19 00:07:02;;;;;;;5.30;3.33;;;;;;;18.69;81.30;101086.44;682860;28;1455;-79
2022/07/19 00:07:23;;;;;;;4.90;3.10;;;;;;;18.71;81.17;101084.63;680716;28;1593;-79
2022/07/19 00:07:45;;;;;;;4.68;2.88;;;;;;;18.79;80.23;101089.66;681656;28;1339;-79
2022/07/19 00:08:05;;;;;;;4.80;2.92;;;;;;;18.86;79.95;101078.81;683153;28;1831;-79
2022/07/19 00:08:26;;;;;;;4.80;3.13;;;;;;;18.81;81.85;101093.13;684873;28;1399;-79
2022/07/19 00:08:46;;;;;;;4.63;3.20;;;;;;;18.77;81.88;101075.59;681700;28;1517;-79
2022/07/19 00:09:08;;;;;;;4.57;3.20;;;;;;;18.74;80.66;101083.66;681655;28;4439;-79
2022/07/19 00:09:28;;;;;;;5.28;3.28;;;;;;;18.74;80.58;101084.50;681263;28;1535;-79
2022/07/19 00:09:48;;;;;;;5.80;3.20;;;;;;;18.74;80.76;101081.00;683911;28;1513;-79
2022/07/19 00:10:11;;;;;;;5.30;3.00;;;;;;;18.77;81.34;101080.91;686682;28;1973;-79
2022/07/19 00:10:31;;;;;;;5.13;3.25;;;;;;;18.70;81.82;101082.88;688552;28;1662;-79
2022/07/19 00:10:51;;;;;;;5.03;2.93;;;;;;;18.71;81.05;101087.28;686003;28;1594;-79
2022/07/19 00:11:12;;;;;;;5.30;3.10;;;;;;;18.76;80.65;101087.09;684947;28;1569;-79
2022/07/19 00:11:32;;;;;;;4.60;3.00;;;;;;;18.76;80.28;101085.34;684067;28;1533;-79
2022/07/19 00:11:53;;;;;;;4.85;3.03;;;;;;;18.84;79.58;101087.72;682925;28;1176;-79
2022/07/19 00:12:14;;;;;;;5.18;3.03;;;;;;;18.84;79.60;101077.13;678723;29;5443;-79
2022/07/19 00:12:35;;;;;;;6.00;3.00;;;;;;;18.94;79.22;101078.63;683140;28;1879;-79
2022/07/19 00:12:55;;;;;;;5.75;3.03;;;;;;;18.91;80.68;101084.00;682699;28;1688;-79
2022/07/19 00:13:16;;;;;;;5.60;3.20;;;;;;;18.86;80.83;101073.53;682809;28;1597;-79
2022/07/19 00:13:36;;;;;;;5.20;3.20;;;;;;;18.79;80.73;101079.94;682905;28;1660;-79
2022/07/19 00:13:59;;;;;;;4.97;3.10;;;;;;;18.76;80.31;101088.00;686200;28;1597;-78
2022/07/19 00:14:20;;;;;;;6.95;3.20;;;;;;;18.77;80.31;101089.69;685758;28;1752;-79
2022/07/19 00:14:41;;;;;;;6.28;3.28;;;;;;;18.79;80.45;101079.06;685851;28;1837;-79
2022/07/19 00:15:03;;;;;;;5.70;3.40;;;;;;;18.78;79.67;101083.50;684513;28;5855;-79
2022/07/19 00:15:23;;;;;;;5.22;3.25;;;;;;;18.80;80.06;101088.75;683704;28;1776;-79
2022/07/19 00:15:44;;;;;;;5.40;3.13;;;;;;;18.78;79.64;101078.19;684828;28;1565;-79
2022/07/19 00:16:05;;;;;;;5.40;3.10;;;;;;;18.80;79.35;101081.69;685419;28;1485;-79
2022/07/19 00:16:25;;;;;;;4.57;3.00;;;;;;;18.75;81.26;101078.31;682849;28;1740;-78
2022/07/19 00:16:46;;;;;;;5.57;3.10;;;;;;;18.77;80.09;101086.19;683327;28;1474;-79
2022/07/19 00:17:06;;;;;;;5.78;3.17;;;;;;;18.83;80.05;101075.38;685963;28;1076;-79
2022/07/19 00:17:27;;;;;;;5.70;3.30;;;;;;;18.76;80.27;101074.75;688316;28;1977;-79
2022/07/19 00:17:48;;;;;;;5.25;3.20;;;;;;;18.76;79.98;101077.41;684787;28;1197;-79
2022/07/19 00:18:08;;;;;;;5.78;3.28;;;;;;;18.79;80.33;101079.06;684090;28;4303;-79
2022/07/19 00:18:29;;;;;;;5.30;3.37;;;;;;;18.81;79.71;101077.25;688157;28;1459;-79
2022/07/19 00:18:49;;;;;;;5.47;3.30;;;;;;;18.84;79.12;101077.13;685496;28;1486;-78
2022/07/19 00:19:13;;;;;;;6.00;3.20;;;;;;;18.84;78.91;101087.72;683441;28;1384;-79
2022/07/19 00:19:33;;;;;;;5.15;3.28;;;;;;;18.84;78.94;101079.78;682789;28;1439;-79
2022/07/19 00:19:54;;;;;;;5.13;3.00;;;;;;;18.86;78.86;101075.31;683535;28;1571;-79
2022/07/19 00:20:18;;;;;;;7.50;2.90;;;;;;;18.89;78.42;101069.94;680603;28;1426;-79
2022/07/19 00:20:38;;;;;;;5.78;2.85;;;;;;;18.93;79.01;101071.56;683743;28;1371;-79
2022/07/19 00:20:59;;;;;;;6.05;3.15;;;;;;;18.93;78.27;101081.28;683839;28;1632;-79
2022/07/19 00:21:19;;;;;;;5.70;3.10;;;;;;;18.92;78.08;101072.47;683184;28;4280;-79
2022/07/19 00:21:40;;;;;;;5.40;3.00;;;;;;;18.88;78.85;101074.38;683478;28;1213;-79
2022/07/19 00:22:00;;;;;;;5.20;3.00;;;;;;;18.90;78.01;101076.97;684428;28;1254;-79
2022/07/19 00:22:23;;;;;;;4.65;2.90;;;;;;;18.95;77.91;101075.03;682904;28;999;-78
2022/07/19 00:22:44;;;;;;;5.23;3.03;;;;;;;18.94;78.25;101075.97;684347;28;1426;-79
2022/07/19 00:23:04;;;;;;;5.43;3.20;;;;;;;18.88;80.04;101065.56;684544;28;1226;-78
2022/07/19 00:23:25;;;;;;;6.25;3.05;;;;;;;18.83;80.36;101073.63;686575;28;1267;-78
2022/07/19 00:23:46;;;;;;;5.57;3.10;;;;;;;18.76;80.01;101079.16;693795;28;1394;-79
2022/07/19 00:24:07;;;;;;;5.53;3.10;;;;;;;18.69;80.33;101086.44;689762;28;4332;-79
2022/07/19 00:24:28;;;;;;;5.13;3.15;;;;;;;18.60;80.34;101077.00;688387;28;1622;-79
2022/07/19 00:24:51;;;;;;;5.00;2.97;;;;;;;18.63;80.43;101076.91;685692;28;1058;-79
2022/07/19 00:25:12;;;;;;;5.95;3.20;;;;;;;18.55;80.15;101076.28;681756;28;1292;-79
2022/07/19 00:25:32;;;;;;;5.68;2.90;;;;;;;18.59;79.71;101072.63;682817;29;1373;-79
2022/07/19 00:25:53;;;;;;;4.73;2.80;;;;;;;18.54;80.78;101090.47;685201;28;1315;-79
2022/07/19 00:26:14;;;;;;;6.13;3.15;;;;;;;18.46;80.19;101092.47;685355;28;1356;-79
2022/07/19 00:26:34;;;;;;;5.55;3.05;;;;;;;18.49;79.89;101100.31;688062;28;1207;-79
2022/07/19 00:26:55;;;;;;;4.63;3.03;;;;;;;18.49;81.18;101085.28;684662;28;1277;-79
2022/07/19 00:27:16;;;;;;;5.05;3.10;;;;;;;18.45;80.82;101096.88;679021;29;4343;-79
2022/07/19 00:27:37;;;;;;;5.32;3.40;;;;;;;18.45;81.45;101094.22;682353;29;1253;-78
2022/07/19 00:27:57;;;;;;;5.10;3.28;;;;;;;18.43;81.21;101087.25;684500;28;1378;-79
2022/07/19 00:28:18;;;;;;;5.27;3.10;;;;;;;18.43;80.99;101076.66;688061;28;1169;-79
2022/07/19 00:28:39;;;;;;;4.47;2.90;;;;;;;18.46;80.51;101089.81;691043;28;1294;-79
2022/07/19 00:29:00;;;;;;;5.47;3.10;;;;;;;18.49;81.13;101103.81;687837;28;1530;-79
2022/07/19 00:29:21;;;;;;;5.13;3.00;;;;;;;18.46;80.66;101097.75;685361;28;1302;-79
2022/07/19 00:29:41;;;;;;;6.65;3.30;;;;;;;18.44;81.57;101091.63;687525;28;1389;-79
2022/07/19 00:30:05;;;;;;;6.73;3.40;;;;;;;18.42;80.46;101085.53;677696;28;4415;-79
2022/07/19 00:30:26;;;;;;;5.13;2.95;;;;;;;18.44;80.65;101081.03;687683;28;1292;-79
2022/07/19 00:30:46;;;;;;;4.93;3.17;;;;;;;18.36;81.44;101076.88;688298;28;938;-79
2022/07/19 00:31:07;;;;;;;5.10;3.20;;;;;;;18.28;81.32;101075.38;687269;28;1439;-78
2022/07/19 00:31:28;;;;;;;4.67;3.20;;;;;;;18.20;80.81;101110.00;687474;28;1727;-79
2022/07/19 00:31:48;;;;;;;4.60;3.22;;;;;;;18.13;80.86;101074.91;683912;28;2031;-79
2022/07/19 00:32:09;;;;;;;4.50;3.20;;;;;;;18.13;81.08;101097.88;687353;28;1826;-79
2022/07/19 00:32:29;;;;;;;5.60;3.23;;;;;;;18.17;80.93;101076.53;687403;28;1260;-79
2022/07/19 00:32:50;;;;;;;5.30;3.10;;;;;;;18.20;80.81;101080.88;687069;28;1283;-78
2022/07/19 00:34:06;;;;;;;5.40;3.00;;;;;;;18.17;81.37;101076.53;685199;28;4375;-78
2022/07/19 00:34:45;;;;;;;5.15;3.00;;;;;;;18.26;80.52;101078.03;681124;28;1282;-79
2022/07/19 00:35:05;;;;;;;5.20;3.10;;;;;;;18.35;80.28;101077.78;682493;28;1093;-80
2022/07/19 00:35:29;;;;;;;5.55;3.00;;;;;;;18.43;79.72;101076.66;685817;28;1542;-80
2022/07/19 00:35:49;;;;;;;5.57;3.17;;;;;;;18.42;79.67;101073.16;683713;28;1532;-79
2022/07/19 00:36:10;;;;;;;5.63;3.15;;;;;;;18.42;79.72;101077.59;683067;28;4398;-79
2022/07/19 00:36:31;;;;;;;5.60;3.20;;;;;;;18.45;79.42;101077.50;689406;28;1262;-80
2022/07/19 00:36:51;;;;;;;4.88;3.00;;;;;;;18.35;79.80;101072.47;688536;28;1295;-79
2022/07/19 00:37:12;;;;;;;4.83;3.10;;;;;;;18.26;80.07;101075.41;686606;28;1490;-79
2022/07/19 00:37:32;;;;;;;4.80;3.20;;;;;;;18.22;80.37;101079.06;684729;28;1517;-79
2022/07/19 00:37:53;;;;;;;5.15;3.20;;;;;;;18.27;80.02;101092.16;685406;28;1371;-79
2022/07/19 00:38:14;;;;;;;5.20;3.20;;;;;;;18.25;80.78;101086.03;684548;28;1083;-80
2022/07/19 00:38:34;;;;;;;4.50;3.08;;;;;;;18.24;80.61;101071.94;681679;28;1467;-80
2022/07/19 00:38:55;;;;;;;4.50;3.00;;;;;;;18.21;80.29;101079.97;685244;28;1337;-80
2022/07/19 00:39:15;;;;;;;4.85;3.17;;;;;;;18.18;80.66;101077.44;690298;28;4473;-79
2022/07/19 00:39:36;;;;;;;6.50;3.07;;;;;;;18.14;80.89;101074.00;690987;28;1333;-79
2022/07/19 00:39:57;;;;;;;6.47;3.10;;;;;;;18.17;80.21;101081.00;688483;28;1179;-79
2022/07/19 00:40:22;;;;;;;5.82;2.97;;;;;;;18.15;81.37;101070.44;685237;28;1447;-79
2022/07/19 00:40:43;;;;;;;5.32;3.10;;;;;;;18.10;81.14;101074.16;686397;28;1245;-79
2022/07/19 00:41:03;;;;;;;6.13;3.20;;;;;;;18.09;80.88;101080.34;685839;28;1161;-79
2022/07/19 00:41:24;;;;;;;6.43;3.30;;;;;;;18.17;80.62;101078.34;685606;28;1019;-79
2022/07/19 00:41:45;;;;;;;4.80;3.17;;;;;;;18.26;80.63;101074.53;686138;28;1300;-79
2022/07/19 00:42:07;;;;;;;5.00;3.15;;;;;;;18.21;81.87;101074.69;685390;28;4387;-79
2022/07/19 00:42:28;;;;;;;5.07;3.10;;;;;;;18.18;81.72;101080.09;682945;28;1078;-79
2022/07/19 00:42:50;;;;;;;4.60;3.10;;;;;;;18.17;81.11;101073.06;680166;28;1437;-80
2022/07/19 00:43:12;;;;;;;5.53;3.20;;;;;;;18.12;81.85;101075.81;680894;28;1464;-79
2022/07/19 00:43:33;;;;;;;4.90;3.33;;;;;;;18.07;82.35;101079.50;683857;28;1646;-79
2022/07/19 00:43:53;;;;;;;5.45;3.33;;;;;;;18.04;82.75;101075.16;685330;28;925;-80
2022/07/19 00:44:26;;;;;;;5.75;3.17;;;;;;;17.99;82.56;101077.97;688210;28;1204;-80
2022/07/19 00:44:48;;;;;;;6.00;3.20;;;;;;;17.95;83.24;101075.47;691118;28;892;-82
2022/07/19 00:46:03;;;;;;;5.90;3.25;;;;;;;18.02;82.54;101077.00;680155;28;1407;-79
2022/07/19 00:46:23;;;;;;;5.95;3.28;;;;;;;18.13;82.41;101074.06;671970;29;4697;-79
2022/07/19 00:46:44;;;;;;;5.68;3.33;;;;;;;18.13;82.09;101074.91;674189;29;1232;-79
2022/07/19 00:47:05;;;;;;;5.30;3.08;;;;;;;18.11;82.28;101087.31;678630;28;1849;-79
2022/07/19 00:47:26;;;;;;;4.35;2.92;;;;;;;18.11;81.09;101079.38;676339;28;1396;-79
2022/07/19 00:47:46;;;;;;;5.00;3.30;;;;;;;18.14;81.06;101073.16;683109;28;1385;-79
2022/07/19 00:48:07;;;;;;;4.80;3.10;;;;;;;18.15;81.33;101066.91;682913;28;1344;-79
2022/07/19 00:48:28;;;;;;;5.22;3.08;;;;;;;18.10;81.84;101069.72;682451;28;1613;-79
2022/07/19 00:48:50;;;;;;;5.88;3.08;;;;;;;18.01;81.65;101068.22;681166;28;1513;-79
2022/07/19 00:49:13;;;;;;;6.10;3.05;;;;;;;17.96;82.12;101072.75;681610;28;1213;-79
2022/07/19 00:49:34;;;;;;;5.40;2.88;;;;;;;17.95;82.34;101081.59;681756;28;1347;-79
2022/07/19 00:49:57;;;;;;;7.13;3.27;;;;;;;17.92;81.96;101070.25;680569;29;1258;-79
2022/07/19 00:50:19;;;;;;;7.40;3.30;;;;;;;17.92;81.86;101065.81;677927;29;1549;-78
2022/07/19 00:50:39;;;;;;;5.22;3.30;;;;;;;17.95;82.25;101072.81;678440;29;1201;-79
2022/07/19 00:51:02;;;;;;;5.17;3.43;;;;;;;18.01;83.04;101080.56;676685;29;4352;-79
2022/07/19 00:51:23;;;;;;;6.55;3.45;;;;;;;17.94;82.46;101074.56;677402;29;1396;-79
2022/07/19 00:51:45;;;;;;;5.93;3.40;;;;;;;17.97;81.99;101078.91;680769;29;1137;-79
2022/07/19 00:52:07;;;;;;;5.13;3.03;;;;;;;17.99;81.89;101077.97;681205;28;1288;-79
2022/07/19 00:52:28;;;;;;;7.60;3.25;;;;;;;17.94;83.67;101069.28;679864;29;1446;-79
2022/07/19 00:52:52;;;;;;;5.68;3.40;;;;;;;17.94;82.44;101077.22;680785;28;1422;-79
2022/07/19 00:53:14;;;;;;;5.40;3.55;;;;;;;18.05;81.66;101084.84;678377;29;1237;-79
2022/07/19 00:53:52;;;;;;;5.78;3.28;;;;;;;18.10;81.38;101068.84;683536;28;1264;-79
2022/07/19 00:54:13;;;;;;;5.20;3.00;;;;;;;18.07;81.46;101074.22;684218;28;4343;-79
2022/07/19 00:54:35;;;;;;;4.55;3.10;;;;;;;18.02;82.17;101077.88;687101;28;1636;-79
2022/07/19 00:54:56;;;;;;;5.78;3.30;;;;;;;17.92;82.14;101059.69;685773;28;1350;-79
2022/07/19 00:55:18;;;;;;;6.30;3.65;;;;;;;17.82;82.30;101065.19;682859;28;1327;-79
2022/07/19 00:55:40;;;;;;;5.32;3.33;;;;;;;17.77;82.50;101063.59;686086;28;1921;-79
2022/07/19 00:56:04;;;;;;;5.97;3.28;;;;;;;17.79;81.92;101065.28;684178;28;1350;-79
2022/07/19 00:56:26;;;;;;;5.05;3.33;;;;;;;17.80;82.39;101082.00;683594;28;1477;-79
2022/07/19 00:56:50;;;;;;;6.30;3.50;;;;;;;17.76;83.17;101064.50;685463;28;2038;-79
2022/07/19 00:57:12;;;;;;;5.57;3.50;;;;;;;17.73;83.24;101072.53;687543;28;4292;-80
2022/07/19 00:57:35;;;;;;;4.93;3.10;;;;;;;17.76;83.06;101068.00;688757;28;1640;-79
2022/07/19 00:57:56;;;;;;;4.43;3.05;;;;;;;17.77;82.40;101060.94;681807;28;1244;-79
2022/07/19 00:58:17;;;;;;;4.40;3.13;;;;;;;17.79;83.45;101064.41;685825;28;1175;-79
2022/07/19 00:58:39;;;;;;;5.22;3.28;;;;;;;17.80;83.19;101074.09;684988;28;1434;-79
2022/07/19 00:59:03;;;;;;;5.25;3.45;;;;;;;17.85;82.47;101066.91;683068;28;1451;-79
2022/07/19 00:59:26;;;;;;;7.18;3.30;;;;;;;17.82;83.38;101064.31;688085;28;1224;-79
2022/07/19 00:59:51;;;;;;;5.85;3.28;;;;;;;17.79;83.94;101061.75;688174;28;1623;-79
2022/07/19 01:00:15;;;;;;;4.47;3.20;;;;;;;17.74;83.43;101066.34;689819;28;4302;-79
2022/07/19 01:00:35;;;;;;;6.93;3.35;;;;;;;17.74;82.60;101058.41;692682;28;1431;-79
2022/07/19 01:00:55;;;;;;;6.45;3.40;;;;;;;17.76;82.71;101056.56;690298;28;1727;-79
2022/07/19 01:01:17;;;;;;;7.37;3.13;;;;;;;17.79;82.71;101064.41;686691;28;1336;-79
2022/07/19 01:01:39;;;;;;;6.03;3.05;;;;;;;17.80;82.28;101064.34;685442;28;1365;-79
2022/07/19 01:02:00;;;;;;;4.97;3.25;;;;;;;17.88;81.26;101058.88;686795;28;1177;-79
2022/07/19 01:02:22;;;;;;;5.03;3.17;;;;;;;17.86;81.76;101060.66;687891;28;1244;-79
2022/07/19 01:02:43;;;;;;;6.25;3.35;;;;;;;17.78;82.33;101078.56;687785;28;1498;-79
2022/07/19 01:03:07;;;;;;;5.22;3.20;;;;;;;17.72;82.57;101068.13;684845;28;4359;-79
2022/07/19 01:03:28;;;;;;;5.03;3.25;;;;;;;17.61;82.92;101066.69;688444;28;1507;-79
2022/07/19 01:03:50;;;;;;;7.03;3.42;;;;;;;17.55;83.04;101077.41;684291;28;1372;-80
2022/07/19 01:04:11;;;;;;;6.20;3.30;;;;;;;17.56;82.86;101057.13;682538;28;1387;-79
2022/07/19 01:04:33;;;;;;;6.10;3.50;;;;;;;17.61;83.07;101064.03;682262;28;1335;-79
2022/07/19 01:04:56;;;;;;;4.93;3.50;;;;;;;17.67;82.75;101063.84;683096;28;1380;-79
2022/07/19 01:05:17;;;;;;;4.70;3.30;;;;;;;17.68;83.59;101067.34;688391;28;974;-79
2022/07/19 01:05:37;;;;;;;5.30;3.45;;;;;;;17.72;82.29;101076.06;688071;28;1957;-79
2022/07/19 01:05:58;;;;;;;5.70;3.40;;;;;;;17.80;82.03;101076.72;687624;28;1606;-79
2022/07/19 01:06:20;;;;;;;5.70;3.20;;;;;;;17.85;81.66;101086.25;686253;28;4276;-79
2022/07/19 01:06:44;;;;;;;4.65;3.20;;;;;;;17.80;82.54;101060.84;688374;28;1538;-79
2022/07/19 01:07:04;;;;;;;5.30;3.20;;;;;;;17.72;82.73;101061.06;688184;28;1410;-79
2022/07/19 01:07:25;;;;;;;4.72;3.28;;;;;;;17.70;82.88;101060.25;690395;28;1274;-79
2022/07/19 01:07:48;;;;;;;5.37;3.40;;;;;;;17.74;82.39;101061.03;690453;28;1796;-79
2022/07/19 01:08:09;;;;;;;6.13;3.30;;;;;;;17.74;82.69;101058.41;687924;28;1345;-79
2022/07/19 01:08:38;;;;;;;5.20;3.13;;;;;;;17.72;82.39;101069.00;687423;28;1683;-79
2022/07/19 01:08:58;;;;;;;4.80;3.13;;;;;;;17.72;82.57;101065.50;688170;28;2039;-79
2022/07/19 01:09:19;;;;;;;4.77;3.30;;;;;;;17.74;83.05;101071.63;684043;28;4324;-79
2022/07/19 01:09:45;;;;;;;6.03;3.30;;;;;;;17.82;81.34;101064.31;684774;28;1363;-79
2022/07/19 01:10:07;;;;;;;4.93;3.17;;;;;;;17.83;82.11;101064.28;684606;28;2141;-79
2022/07/19 01:10:28;;;;;;;4.50;3.10;;;;;;;17.83;82.48;101060.75;686791;28;1500;-79
2022/07/19 01:10:49;;;;;;;5.57;3.30;;;;;;;17.85;82.77;101061.59;685660;28;1249;-79
2022/07/19 01:11:09;;;;;;;5.53;3.25;;;;;;;17.79;83.10;101065.28;686174;28;1122;-79
2022/07/19 01:11:30;;;;;;;5.47;3.10;;;;;;;17.80;82.24;101060.84;685967;28;1215;-79
2022/07/19 01:11:51;;;;;;;5.25;3.05;;;;;;;17.83;81.57;101068.69;687122;28;1006;-79
2022/07/19 01:12:12;;;;;;;5.93;3.20;;;;;;;17.90;81.26;101066.75;685321;28;4373;-79
2022/07/19 01:12:34;;;;;;;5.70;3.28;;;;;;;17.96;80.95;101066.63;685332;28;1347;-79
2022/07/19 01:12:55;;;;;;;5.40;3.50;;;;;;;17.98;81.33;101067.44;685158;28;1490;-79
2022/07/19 01:13:16;;;;;;;5.30;3.20;;;;;;;18.00;81.17;101063.81;682062;28;1356;-79
2022/07/19 01:13:36;;;;;;;6.15;3.28;;;;;;;17.96;81.93;101064.81;680750;28;1332;-79
2022/07/19 01:13:56;;;;;;;5.93;3.30;;;;;;;17.85;82.63;101064.25;681877;28;1110;-79
2022/07/19 01:14:17;;;;;;;5.30;3.22;;;;;;;17.85;81.77;101058.97;680023;28;1324;-79
2022/07/19 01:14:37;;;;;;;6.13;3.30;;;;;;;17.90;81.74;101067.59;684687;28;1452;-79
2022/07/19 01:14:58;;;;;;;5.50;3.13;;;;;;;17.95;80.97;101063.09;685639;28;1663;-79
2022/07/19 01:15:22;;;;;;;6.50;3.40;;;;;;;17.92;81.74;101065.81;682797;28;4302;-80
2022/07/19 01:15:42;;;;;;;5.63;3.17;;;;;;;17.80;82.76;101071.44;686210;28;999;-79
2022/07/19 01:16:03;;;;;;;5.45;3.13;;;;;;;17.73;83.30;101064.59;688391;28;1531;-79
2022/07/19 01:16:23;;;;;;;6.30;3.30;;;;;;;17.73;82.09;101057.50;685654;28;1236;-79
2022/07/19 01:16:45;;;;;;;6.55;3.20;;;;;;;17.80;81.72;101063.50;685631;28;1470;-79
2022/07/19 01:17:05;;;;;;;6.50;3.03;;;;;;;17.86;81.59;101071.25;686163;28;1137;-79
2022/07/19 01:17:26;;;;;;;5.65;3.10;;;;;;;17.84;82.18;101065.16;685790;28;1451;-79
2022/07/19 01:17:48;;;;;;;5.63;3.00;;;;;;;17.85;82.55;101073.03;681963;28;1320;-79
2022/07/19 01:18:09;;;;;;;6.03;3.10;;;;;;;17.83;82.52;101072.22;683695;28;4390;-79
2022/07/19 01:18:29;;;;;;;4.67;2.93;;;;;;;17.87;81.56;101067.69;688116;28;1278;-79
2022/07/19 01:18:50;;;;;;;4.55;2.97;;;;;;;17.98;80.70;101065.63;687623;28;1216;-79
2022/07/19 01:19:13;;;;;;;4.97;3.28;;;;;;;17.99;80.65;101069.16;685969;28;1356;-79
2022/07/19 01:19:33;;;;;;;5.75;3.40;;;;;;;17.99;81.18;101058.59;683835;28;1371;-79
2022/07/19 01:19:57;;;;;;;5.90;3.47;;;;;;;17.90;82.64;101078.19;684104;28;1189;-79
2022/07/19 01:20:19;;;;;;;5.05;3.33;;;;;;;17.79;82.59;101070.59;685670;28;1392;-79
2022/07/19 01:20:39;;;;;;;5.70;3.10;;;;;;;17.79;81.80;101065.28;685833;28;1312;-79
2022/07/19 01:21:02;;;;;;;4.40;3.17;;;;;;;17.82;83.23;101066.94;684293;28;4299;-79
2022/07/19 01:21:26;;;;;;;4.43;3.30;;;;;;;17.77;83.49;101064.44;683038;28;1343;-79
2022/07/19 01:21:49;;;;;;;6.22;3.50;;;;;;;17.68;83.67;101062.06;686401;28;1476;-80
2022/07/19 01:22:10;;;;;;;5.63;3.47;;;;;;;17.59;84.23;101079.06;683136;28;1109;-79
2022/07/19 01:22:30;;;;;;;4.80;3.20;;;;;;;17.50;84.47;101060.78;680581;29;1348;-79
2022/07/19 01:22:51;;;;;;;4.70;3.40;;;;;;;17.48;84.08;101067.91;680578;28;1178;-79
2022/07/19 01:23:11;;;;;;;4.47;3.03;;;;;;;17.48;84.08;101059.97;680668;28;1264;-79
2022/07/19 01:23:31;;;;;;;4.63;3.00;;;;;;;17.50;83.60;101061.69;680878;28;939;-79
2022/07/19 01:23:52;;;;;;;4.57;3.20;;;;;;;17.57;82.83;101065.03;679603;28;1296;-79
2022/07/19 01:24:13;;;;;;;5.27;3.30;;;;;;;17.70;82.31;101060.25;680142;28;4302;-79
2022/07/19 01:24:33;;;;;;;5.80;3.22;;;;;;;17.69;84.32;101058.50;686275;28;1185;-79
2022/07/19 01:24:54;;;;;;;5.18;3.30;;;;;;;17.58;84.67;101084.38;685924;28;912;-79
2022/07/19 01:25:15;;;;;;;4.23;3.10;;;;;;;17.58;83.44;101056.16;685327;28;1193;-79
2022/07/19 01:25:37;;;;;;;4.93;3.25;;;;;;;17.64;83.98;101058.66;685747;28;1109;-79
2022/07/19 01:25:57;;;;;;;4.93;3.25;;;;;;;17.60;84.39;101056.13;686607;28;995;-79
2022/07/19 01:26:18;;;;;;;5.50;3.20;;;;;;;17.57;84.40;101059.75;685414;28;1758;-79
2022/07/19 01:26:39;;;;;;;5.13;3.60;;;;;;;17.56;83.91;101057.13;683331;28;1169;-79
2022/07/19 01:26:59;;;;;;;4.93;3.40;;;;;;;17.62;83.08;101054.31;684237;28;1287;-79
2022/07/19 01:27:19;;;;;;;5.50;3.40;;;;;;;17.62;84.13;101057.81;684727;28;4221;-79
2022/07/19 01:27:42;;;;;;;5.20;3.30;;;;;;;17.57;84.04;101051.81;684373;28;1536;-79
2022/07/19 01:28:05;;;;;;;4.72;3.30;;;;;;;17.61;83.45;101066.69;685588;28;1262;-79
2022/07/19 01:28:25;;;;;;;5.22;3.30;;;;;;;17.63;82.43;101064.84;689129;28;1284;-79
2022/07/19 01:28:46;;;;;;;4.63;3.40;;;;;;;17.65;83.38;101056.88;684101;28;1431;-79
2022/07/19 01:29:07;;;;;;;4.78;3.45;;;;;;;17.68;82.66;101059.41;684315;28;1644;-79
2022/07/19 01:29:27;;;;;;;5.20;3.27;;;;;;;17.66;83.54;101059.47;683229;28;1400;-79
2022/07/19 01:29:48;;;;;;;5.55;3.20;;;;;;;17.58;83.84;101058.81;688722;28;1237;-79
2022/07/19 01:30:22;;;;;;;5.20;3.23;;;;;;;17.60;82.77;101053.47;688169;28;4307;-79
2022/07/19 01:30:42;;;;;;;5.13;3.38;;;;;;;17.73;81.85;101061.94;684646;28;1292;-79
2022/07/19 01:31:03;;;;;;;5.57;3.20;;;;;;;17.80;81.88;101059.06;682693;28;1682;-79
2022/07/19 01:31:23;;;;;;;5.00;3.50;;;;;;;17.85;80.92;101064.25;683576;28;1429;-79
2022/07/19 01:31:44;;;;;;;4.83;3.40;;;;;;;17.89;81.01;101065.91;681777;28;1416;-79
2022/07/19 01:32:05;;;;;;;5.70;3.67;;;;;;;17.94;81.14;101066.63;679712;28;1598;-79
2022/07/19 01:32:25;;;;;;;5.88;3.60;;;;;;;17.90;81.64;101061.47;682192;28;1161;-79
2022/07/19 01:32:47;;;;;;;5.10;3.22;;;;;;;17.81;81.29;101052.03;681552;28;1243;-79
2022/07/19 01:33:07;;;;;;;5.13;3.33;;;;;;;17.77;82.16;101055.66;683877;28;4542;-79
2022/07/19 01:33:27;;;;;;;5.60;3.30;;;;;;;17.68;82.59;101052.38;684659;28;3263;-79
2022/07/19 01:33:50;;;;;;;6.35;3.13;;;;;;;17.63;81.97;101070.13;684805;28;1432;-79
2022/07/19 01:34:11;;;;;;;5.43;3.15;;;;;;;17.56;83.21;101079.16;681584;28;1585;-79
2022/07/19 01:34:32;;;;;;;5.47;3.17;;;;;;;17.52;83.38;101056.34;681822;28;1244;-79
2022/07/19 01:34:52;;;;;;;5.60;3.30;;;;;;;17.50;83.83;101074.00;683991;28;1275;-79
2022/07/19 01:35:13;;;;;;;4.82;3.10;;;;;;;17.44;83.74;101063.63;685566;28;1048;-79
2022/07/19 01:35:34;;;;;;;5.60;3.10;;;;;;;17.41;82.87;101063.69;688613;28;1152;-79
2022/07/19 01:35:55;;;;;;;5.22;3.30;;;;;;;17.43;83.34;101059.22;688291;28;1254;-80
2022/07/19 01:36:22;;;;;;;4.70;3.13;;;;;;;17.41;84.01;101069.84;690372;28;4955;-79
2022/07/19 01:36:43;;;;;;;6.20;3.42;;;;;;;17.43;83.36;101056.59;689026;28;939;-79
2022/07/19 01:37:03;;;;;;;5.43;3.40;;;;;;;17.45;83.17;101068.00;685810;28;1354;-79
2022/07/19 01:37:24;;;;;;;5.38;3.28;;;;;;;17.36;84.15;101064.69;680502;28;1298;-79
2022/07/19 01:37:45;;;;;;;4.85;3.30;;;;;;;17.29;84.64;101076.34;681722;28;1518;-79
2022/07/19 01:38:06;;;;;;;5.47;3.58;;;;;;;17.28;84.68;101068.44;682481;28;1438;-79
2022/07/19 01:38:26;;;;;;;4.93;3.50;;;;;;;17.23;85.36;101076.47;682298;28;999;-79
2022/07/19 01:38:47;;;;;;;5.60;3.35;;;;;;;17.22;84.62;101050.09;682491;28;997;-79
2022/07/19 01:39:07;;;;;;;5.77;3.43;;;;;;;17.25;85.03;101069.41;683342;28;4326;-79
2022/07/19 01:39:28;;;;;;;5.28;3.45;;;;;;;17.25;84.47;101053.53;683889;28;1250;-79
2022/07/19 01:39:48;;;;;;;5.32;3.63;;;;;;;17.24;85.46;101086.16;685795;28;1388;-79
2022/07/19 01:40:12;;;;;;;5.20;3.40;;;;;;;17.26;84.95;101060.53;688984;28;1452;-79
2022/07/19 01:40:33;;;;;;;4.97;3.20;;;;;;;17.30;83.74;101080.69;687388;28;958;-79
2022/07/19 01:40:57;;;;;;;5.00;3.17;;;;;;;17.36;83.48;101059.41;688362;28;1195;-79
2022/07/19 01:41:17;;;;;;;5.15;3.28;;;;;;;17.30;84.51;101064.84;688693;28;1301;-80
2022/07/19 01:41:38;;;;;;;5.03;3.10;;;;;;;17.21;84.93;101053.66;689442;28;1504;-79
2022/07/19 01:42:01;;;;;;;5.22;3.42;;;;;;;17.17;84.31;101063.44;689184;28;1520;-79
2022/07/19 01:42:23;;;;;;;5.72;3.38;;;;;;;17.22;84.73;101058.88;685729;28;5972;-79
2022/07/19 01:42:46;;;;;;;5.43;3.42;;;;;;;17.26;84.30;101055.25;679748;29;1396;-79
2022/07/19 01:43:07;;;;;;;5.93;3.40;;;;;;;17.23;85.51;101059.78;680911;28;1335;-80
2022/07/19 01:43:27;;;;;;;5.80;3.10;;;;;;;17.16;85.89;101059.06;681998;29;1326;-79
2022/07/19 01:43:48;;;;;;;5.18;3.17;;;;;;;17.08;85.72;101058.38;681399;29;1615;-79